createdAt,value
2022-09-20T00:02:34.908Z,9.8
2022-09-20T00:07:41.016Z,9.7
2022-09-20T00:12:47.099Z,9.7
2022-09-20T00:17:53.202Z,9.6
2022-09-20T00:22:59.285Z,9.6
2022-09-20T00:28:05.412Z,9.6
2022-09-20T00:33:11.493Z,9.5
2022-09-20T00:38:17.587Z,9.5
2022-09-20T00:43:23.677Z,9.6
2022-09-20T00:48:28.783Z,9.6
2022-09-20T00:53:34.894Z,9.6
2022-09-20T00:58:40.962Z,9.6
2022-09-20T01:03:47.063Z,9.6
2022-09-20T01:08:53.170Z,9.5
2022-09-20T01:13:59.269Z,9.4
2022-09-20T01:19:05.359Z,9.4
2022-09-20T01:24:11.444Z,9.4
2022-09-20T01:29:16.567Z,9.4
2022-09-20T01:34:21.671Z,9.3
2022-09-20T01:39:26.793Z,9.4
2022-09-20T01:44:31.918Z,9.4
2022-09-20T01:49:38.000Z,9.4
2022-09-20T01:54:44.098Z,9.4
2022-09-20T01:59:50.184Z,9.4
2022-09-20T02:04:56.274Z,9.4
2022-09-20T02:10:02.380Z,9.4
2022-09-20T02:15:08.469Z,9.3
2022-09-20T02:20:14.557Z,9.3
2022-09-20T02:25:20.664Z,9.2
2022-09-20T02:30:26.753Z,9.2
2022-09-20T02:35:32.854Z,9.2
2022-09-20T02:40:38.955Z,9.3
2022-09-20T02:45:45.039Z,9.3
2022-09-20T02:50:50.145Z,9.4
2022-09-20T02:55:56.245Z,9.4
2022-09-20T03:01:02.336Z,9.4
2022-09-20T03:06:08.433Z,9.5
2022-09-20T03:11:14.545Z,9.5
2022-09-20T03:16:20.631Z,9.5
2022-09-20T03:21:25.748Z,9.4
2022-09-20T03:26:30.866Z,9.3
2022-09-20T03:31:35.973Z,9.3
2022-09-20T03:36:42.072Z,9.2
2022-09-20T03:41:47.187Z,9.2
2022-09-20T03:46:52.295Z,9.2
2022-09-20T03:51:58.395Z,9
2022-09-20T03:57:04.494Z,9
2022-09-20T04:02:10.592Z,9
2022-09-20T04:07:16.681Z,9
2022-09-20T04:12:22.773Z,9.1
2022-09-20T04:17:28.876Z,9
2022-09-20T04:22:34.952Z,9
2022-09-20T04:27:41.057Z,9.1
2022-09-20T04:32:47.169Z,9.1
2022-09-20T04:37:53.257Z,9.2
2022-09-20T04:42:59.434Z,9.2
2022-09-20T04:48:05.445Z,9.2
2022-09-20T04:53:10.554Z,9.3
2022-09-20T04:58:16.639Z,9.3
2022-09-20T05:03:22.736Z,9.3
2022-09-20T05:08:28.884Z,9.4
2022-09-20T05:13:34.933Z,9.4
2022-09-20T05:18:41.033Z,9.4
2022-09-20T05:23:47.115Z,9.4
2022-09-20T05:28:52.247Z,9.5
2022-09-20T05:33:57.356Z,9.5
2022-09-20T05:39:02.477Z,9.6
2022-09-20T05:44:07.591Z,9.6
2022-09-20T05:49:13.665Z,9.7
2022-09-20T05:54:19.782Z,9.9
2022-09-20T05:59:25.906Z,10
2022-09-20T06:04:31.959Z,10
2022-09-20T06:09:38.137Z,10
2022-09-20T06:14:44.151Z,10
2022-09-20T06:19:50.245Z,10.1
2022-09-20T06:24:56.344Z,10.2
2022-09-20T06:30:02.443Z,10.3
2022-09-20T06:35:08.522Z,10.4
2022-09-20T06:40:14.637Z,10.7
2022-09-20T06:45:20.734Z,10.9
2022-09-20T06:50:25.834Z,10.8
2022-09-20T06:55:31.922Z,10.8
2022-09-20T07:00:38.036Z,10.8
2022-09-20T07:05:44.122Z,10.8
2022-09-20T07:10:50.282Z,11
2022-09-20T07:15:56.302Z,11.2
2022-09-20T07:21:02.461Z,11.4
2022-09-20T07:26:07.544Z,11.5
2022-09-20T07:31:12.694Z,11.5
2022-09-20T07:36:17.765Z,11.5
2022-09-20T07:41:22.871Z,11.4
2022-09-20T07:46:28.960Z,11.3
2022-09-20T07:51:35.048Z,11.3
2022-09-20T07:56:41.143Z,11.4
2022-09-20T08:01:47.244Z,11.7
2022-09-20T08:06:53.331Z,12.6
2022-09-20T08:11:59.431Z,12.9
2022-09-20T08:17:05.518Z,13
2022-09-20T08:22:11.632Z,12.9
2022-09-20T08:27:17.709Z,13.1
2022-09-20T08:32:23.799Z,13.1
2022-09-20T08:37:29.897Z,13.2
2022-09-20T08:42:35.992Z,13.6
2022-09-20T08:47:41.101Z,14.3
2022-09-20T08:52:47.202Z,15.3
2022-09-20T08:57:53.296Z,16
2022-09-20T09:02:59.386Z,15.7
2022-09-20T09:08:05.478Z,15.1
2022-09-20T09:13:11.586Z,14.7
2022-09-20T09:18:17.681Z,14.5
2022-09-20T09:23:22.804Z,14.1
2022-09-20T09:28:27.902Z,14.6
2022-09-20T09:33:34.013Z,15.2
2022-09-20T09:38:40.106Z,16.5
2022-09-20T09:43:46.254Z,17.7
2022-09-20T09:48:52.408Z,17.7
2022-09-20T09:53:58.387Z,19.1
2022-09-20T09:59:04.594Z,20.4
2022-09-20T10:04:10.693Z,21.7
2022-09-20T10:09:16.657Z,21.4
2022-09-20T10:14:22.755Z,21.3
2022-09-20T10:19:28.842Z,19.1
2022-09-20T10:24:34.953Z,19.9
2022-09-20T10:29:41.046Z,18.1
2022-09-20T10:34:46.145Z,20.6
2022-09-20T10:39:52.391Z,23
2022-09-20T10:44:58.357Z,21.4
2022-09-20T10:50:04.490Z,18.4
2022-09-20T10:55:10.599Z,16.9
2022-09-20T11:00:16.630Z,16
2022-09-20T11:05:22.717Z,19.8
2022-09-20T11:10:27.818Z,22.9
2022-09-20T11:15:32.935Z,21.8
2022-09-20T11:20:39.081Z,21.5
2022-09-20T11:25:45.121Z,22
2022-09-20T11:30:51.222Z,19.3
2022-09-20T11:35:57.306Z,17.9
2022-09-20T11:41:03.415Z,17.2
2022-09-20T11:46:09.505Z,17.8
2022-09-20T11:51:15.585Z,17.9
2022-09-20T11:56:21.683Z,17.9
2022-09-20T12:01:27.781Z,18.3
2022-09-20T12:06:33.881Z,18.5
2022-09-20T12:11:39.992Z,18.3
2022-09-20T12:16:46.068Z,17.5
2022-09-20T12:21:51.168Z,16.3
2022-09-20T12:26:57.273Z,15.9
2022-09-20T12:32:03.360Z,16.1
2022-09-20T12:37:09.453Z,16.2
2022-09-20T12:42:17.386Z,15.7
2022-09-20T12:47:21.653Z,15.5
2022-09-20T12:52:27.745Z,15.8
2022-09-20T12:57:32.852Z,16.3
2022-09-20T13:02:37.978Z,16.1
2022-09-20T13:07:44.071Z,16.1
2022-09-20T13:12:50.161Z,15.8
2022-09-20T13:17:56.243Z,15.7
2022-09-20T13:23:02.333Z,16
2022-09-20T13:28:08.453Z,16.2
2022-09-20T13:33:14.535Z,16.1
2022-09-20T13:38:20.639Z,16
2022-09-20T13:43:26.734Z,16
2022-09-20T13:48:32.849Z,16.1
2022-09-20T13:53:38.951Z,16.2
2022-09-20T13:58:45.023Z,16.2
2022-09-20T14:03:51.121Z,16.3
2022-09-20T14:08:56.234Z,16.3
2022-09-20T14:14:02.329Z,16.3
2022-09-20T14:19:08.420Z,16.3
2022-09-20T14:24:14.516Z,16.4
2022-09-20T14:29:20.644Z,16.7
2022-09-20T14:34:26.704Z,17
2022-09-20T14:39:32.811Z,17
2022-09-20T14:44:37.924Z,17.3
2022-09-20T14:49:43.023Z,16.4
2022-09-20T14:54:48.157Z,16.5
2022-09-20T14:59:53.258Z,17.2
2022-09-20T15:04:58.371Z,16.7
2022-09-20T15:10:03.499Z,16.5
2022-09-20T15:15:08.614Z,16.1
2022-09-20T15:20:13.698Z,16.1
2022-09-20T15:25:19.809Z,16
2022-09-20T15:30:25.920Z,15.9
2022-09-20T15:35:31.998Z,15.8
2022-09-20T15:40:38.116Z,15.7
2022-09-20T15:45:44.176Z,15.6
2022-09-20T15:50:50.283Z,15.6
2022-09-20T15:55:56.371Z,15.5
2022-09-20T16:01:02.469Z,15.4
2022-09-20T16:06:08.553Z,15.3
2022-09-20T16:11:14.669Z,15.2
2022-09-20T16:16:20.755Z,15.1
2022-09-20T16:21:26.846Z,14.9
2022-09-20T16:26:31.950Z,14.8
2022-09-20T16:31:38.062Z,14.7
2022-09-20T16:36:44.142Z,14.5
2022-09-20T16:41:50.300Z,14.4
2022-09-20T16:46:56.331Z,14.3
2022-09-20T16:52:02.435Z,14.2
2022-09-20T16:57:08.530Z,13.9
2022-09-20T17:02:13.645Z,13.8
2022-09-20T17:07:18.757Z,13.6
2022-09-20T17:12:23.858Z,13.2
2022-09-20T17:17:28.971Z,12.9
2022-09-20T17:22:35.082Z,12.5
2022-09-20T17:27:41.169Z,12.2
2022-09-20T17:32:47.267Z,11.9
2022-09-20T17:37:53.350Z,11.6
2022-09-20T17:42:59.463Z,11.4
2022-09-20T17:48:05.773Z,11.1
2022-09-20T17:53:11.899Z,10.8
2022-09-20T17:58:17.970Z,10.5
2022-09-20T18:03:24.072Z,10.3
2022-09-20T18:08:30.162Z,10.2
2022-09-20T18:13:36.263Z,9.9
2022-09-20T18:18:42.350Z,9.8
2022-09-20T18:23:47.473Z,9.6
2022-09-20T18:28:53.557Z,9.4
2022-09-20T18:33:59.653Z,9.3
2022-09-20T18:39:05.753Z,9.2
2022-09-20T18:44:11.853Z,9.1
2022-09-20T18:49:17.981Z,9
2022-09-20T18:54:24.043Z,8.9
2022-09-20T18:59:29.167Z,8.7
2022-09-20T19:04:34.263Z,8.6
2022-09-20T19:09:40.359Z,8.6
2022-09-20T19:14:45.484Z,8.6
2022-09-20T19:19:50.589Z,8.6
2022-09-20T19:24:56.676Z,8.6
2022-09-20T19:30:02.794Z,8.6
2022-09-20T19:35:08.868Z,8.5
2022-09-20T19:40:15.009Z,8.5
2022-09-20T19:45:21.078Z,8.4
2022-09-20T19:50:27.175Z,8.3
2022-09-20T19:55:33.258Z,8.2
2022-09-20T20:00:39.349Z,8.1
2022-09-20T20:05:45.455Z,8.1
2022-09-20T20:10:51.631Z,8.1
2022-09-20T20:15:57.667Z,8.1
2022-09-20T20:21:03.767Z,8.1
2022-09-20T20:26:08.894Z,8
2022-09-20T20:31:14.998Z,7.9
2022-09-20T20:36:21.072Z,7.8
2022-09-20T20:41:27.159Z,7.7
2022-09-20T20:46:33.282Z,7.6
2022-09-20T20:51:39.455Z,7.5
2022-09-20T20:56:45.447Z,7.5
2022-09-20T21:01:50.573Z,7.4
2022-09-20T21:06:55.671Z,7.3
2022-09-20T21:12:01.770Z,7.3
2022-09-20T21:17:06.892Z,7.3
2022-09-20T21:22:11.989Z,7.2
2022-09-20T21:27:18.097Z,7.2
2022-09-20T21:32:24.197Z,7.2
2022-09-20T21:37:30.275Z,7.1
2022-09-20T21:42:36.370Z,7
2022-09-20T21:47:42.466Z,7
2022-09-20T21:52:48.587Z,7
2022-09-20T21:57:54.674Z,7
2022-09-20T22:03:00.767Z,7
2022-09-20T22:08:06.860Z,7.1
2022-09-20T22:13:12.944Z,7.1
2022-09-20T22:18:19.067Z,7.2
2022-09-20T22:23:25.155Z,7.3
2022-09-20T22:28:30.255Z,7.3
2022-09-20T22:33:36.360Z,7.2
2022-09-20T22:38:42.457Z,7.1
2022-09-20T22:43:48.546Z,7.1
2022-09-20T22:48:54.643Z,6.9
2022-09-20T22:54:00.752Z,6.9
2022-09-20T22:59:06.843Z,6.8
2022-09-20T23:04:11.970Z,6.7
2022-09-20T23:09:17.082Z,6.7
2022-09-20T23:14:23.179Z,6.7
2022-09-20T23:19:29.253Z,6.6
2022-09-20T23:24:35.356Z,6.6
2022-09-20T23:29:41.453Z,6.5
2022-09-20T23:34:47.560Z,6.5
2022-09-20T23:39:53.641Z,6.4
2022-09-20T23:44:59.749Z,6.4
2022-09-20T23:50:05.850Z,6.4
2022-09-20T23:55:11.942Z,6.4
